createdAt,value
2018-02-21T00:02:02.983Z,89.61
2018-02-21T00:04:29.025Z,89.73
2018-02-21T00:06:55.109Z,89.62
2018-02-21T00:09:21.167Z,89.50
2018-02-21T00:11:47.206Z,89.75
2018-02-21T00:14:13.267Z,89.69
2018-02-21T00:16:39.370Z,89.86
2018-02-21T00:19:05.611Z,89.55
2018-02-21T00:21:31.665Z,89.30
2018-02-21T00:23:57.701Z,89.14
2018-02-21T00:26:23.803Z,89.29
2018-02-21T00:28:49.838Z,89.37
2018-02-21T00:31:15.838Z,89.53
2018-02-21T00:33:41.855Z,89.70
2018-02-21T00:36:07.895Z,89.79
2018-02-21T00:38:33.981Z,89.87
2018-02-21T00:41:00.042Z,90.36
2018-02-21T00:43:26.069Z,90.29
2018-02-21T00:45:52.685Z,91.02
2018-02-21T00:48:19.616Z,90.64
2018-02-21T00:50:45.995Z,90.60
2018-02-21T00:53:12.020Z,90.45
2018-02-21T00:55:38.058Z,90.32
2018-02-21T00:58:04.094Z,90.70
2018-02-21T01:00:30.429Z,90.39
2018-02-21T01:02:56.546Z,90.25
2018-02-21T01:05:22.550Z,90.00
2018-02-21T01:07:48.562Z,90.40
2018-02-21T01:10:14.630Z,90.42
2018-02-21T01:12:40.695Z,90.05
2018-02-21T01:15:06.705Z,90.00
2018-02-21T01:17:32.718Z,90.03
2018-02-21T01:19:58.790Z,89.98
2018-02-21T01:22:24.815Z,89.87
2018-02-21T01:24:50.851Z,90.33
2018-02-21T01:27:16.880Z,90.25
2018-02-21T01:29:42.916Z,90.27
2018-02-21T01:32:08.938Z,90.29
2018-02-21T01:34:34.920Z,90.29
2018-02-21T01:37:01.024Z,90.14
2018-02-21T01:39:27.053Z,90.12
2018-02-21T01:41:53.124Z,89.95
2018-02-21T01:44:19.128Z,89.84
2018-02-21T01:46:45.144Z,89.60
2018-02-21T01:49:11.193Z,89.94
2018-02-21T01:51:37.276Z,89.83
2018-02-21T01:54:03.287Z,89.52
2018-02-21T01:56:29.381Z,89.17
2018-02-21T01:58:55.476Z,88.79
2018-02-21T02:01:21.500Z,88.70
2018-02-21T02:03:47.517Z,88.87
2018-02-21T02:06:13.560Z,88.36
2018-02-21T02:08:39.646Z,88.31
2018-02-21T02:11:05.735Z,88.42
2018-02-21T02:13:31.774Z,88.90
2018-02-21T02:15:57.769Z,90.07
2018-02-21T02:18:23.798Z,90.97
2018-02-21T02:20:49.806Z,91.00
2018-02-21T02:23:15.826Z,90.94
2018-02-21T02:25:41.834Z,90.83
2018-02-21T02:28:07.865Z,91.01
2018-02-21T02:30:33.852Z,90.74
2018-02-21T02:32:59.867Z,90.93
2018-02-21T02:35:25.841Z,90.80
2018-02-21T02:37:51.842Z,90.53
2018-02-21T02:40:18.122Z,90.34
2018-02-21T02:42:43.903Z,90.17
2018-02-21T02:45:09.985Z,90.15
2018-02-21T02:47:36.053Z,89.73
2018-02-21T02:50:02.726Z,89.54
2018-02-21T02:52:28.795Z,89.34
2018-02-21T02:54:54.800Z,89.40
2018-02-21T02:57:20.821Z,89.25
2018-02-21T02:59:46.824Z,89.26
2018-02-21T03:02:12.943Z,88.21
2018-02-21T03:04:38.985Z,88.00
2018-02-21T03:07:05.037Z,88.23
2018-02-21T03:09:31.046Z,87.85
2018-02-21T03:11:57.237Z,87.67
2018-02-21T03:14:23.260Z,88.05
2018-02-21T03:16:49.282Z,88.52
2018-02-21T03:19:15.342Z,88.47
2018-02-21T03:21:41.380Z,88.30
2018-02-21T03:24:07.373Z,88.67
2018-02-21T03:26:33.391Z,88.47
2018-02-21T03:28:59.436Z,88.72
2018-02-21T03:31:25.495Z,88.70
2018-02-21T03:33:51.501Z,88.49
2018-02-21T03:36:17.545Z,88.32
2018-02-21T03:38:43.596Z,88.05
2018-02-21T03:41:09.677Z,88.26
2018-02-21T03:43:35.725Z,88.25
2018-02-21T03:46:01.765Z,88.09
2018-02-21T03:48:27.856Z,88.07
2018-02-21T03:50:53.926Z,88.09
2018-02-21T03:53:19.941Z,87.88
2018-02-21T03:55:45.909Z,87.69
2018-02-21T03:58:12.017Z,87.48
2018-02-21T04:00:38.094Z,87.60
2018-02-21T04:03:04.224Z,87.80
2018-02-21T04:05:30.241Z,87.56
2018-02-21T04:07:56.246Z,87.84
2018-02-21T04:10:22.344Z,87.17
2018-02-21T04:12:48.333Z,87.48
2018-02-21T04:15:14.486Z,87.29
2018-02-21T04:17:40.507Z,87.23
2018-02-21T04:20:06.737Z,87.37
2018-02-21T04:22:32.857Z,87.55
2018-02-21T04:24:58.901Z,87.60
2018-02-21T04:27:24.930Z,87.28
2018-02-21T04:29:50.944Z,86.87
2018-02-21T04:32:17.023Z,86.93
2018-02-21T04:34:43.091Z,87.24
2018-02-21T04:37:09.133Z,87.33
2018-02-21T04:39:35.197Z,87.39
2018-02-21T04:42:01.222Z,87.33
2018-02-21T04:44:27.250Z,87.16
2018-02-21T04:46:53.274Z,87.28
2018-02-21T04:49:19.329Z,87.32
2018-02-21T04:51:45.321Z,87.13
2018-02-21T04:54:12.016Z,87.30
2018-02-21T04:56:44.278Z,87.08
2018-02-21T04:59:17.212Z,86.85
2018-02-21T05:01:43.266Z,87.20
2018-02-21T05:04:09.291Z,87.43
2018-02-21T05:06:35.402Z,86.95
2018-02-21T05:09:01.490Z,86.79
2018-02-21T05:11:27.545Z,87.04
2018-02-21T05:13:53.561Z,87.16
2018-02-21T05:16:19.634Z,87.26
2018-02-21T05:18:45.672Z,87.44
2018-02-21T05:21:11.759Z,87.54
2018-02-21T05:23:37.793Z,87.49
2018-02-21T05:26:03.826Z,87.51
2018-02-21T05:28:29.893Z,87.73
2018-02-21T05:30:55.851Z,87.52
2018-02-21T05:33:21.902Z,87.50
2018-02-21T05:35:47.954Z,87.34
2018-02-21T05:38:14.045Z,87.55
2018-02-21T05:40:40.066Z,87.58
2018-02-21T05:43:06.115Z,87.40
2018-02-21T05:45:32.197Z,87.80
2018-02-21T05:47:58.221Z,87.74
2018-02-21T05:50:24.278Z,87.86
2018-02-21T05:52:50.307Z,87.72
2018-02-21T05:55:16.342Z,87.32
2018-02-21T05:57:42.345Z,87.23
2018-02-21T06:00:08.452Z,87.07
2018-02-21T06:02:34.573Z,86.74
2018-02-21T06:05:00.617Z,86.68
2018-02-21T06:07:26.644Z,86.66
2018-02-21T06:09:52.689Z,86.69
2018-02-21T06:12:18.703Z,86.69
2018-02-21T06:14:44.758Z,86.80
2018-02-21T06:17:10.744Z,86.76
2018-02-21T06:19:36.799Z,86.74
2018-02-21T06:22:02.942Z,86.63
2018-02-21T06:24:28.929Z,86.45
2018-02-21T06:26:54.981Z,86.51
2018-02-21T06:29:20.986Z,86.38
2018-02-21T06:31:47.006Z,86.13
2018-02-21T06:34:13.013Z,86.31
2018-02-21T06:36:39.058Z,86.27
2018-02-21T06:39:05.088Z,85.86
2018-02-21T06:41:31.134Z,85.58
2018-02-21T06:43:57.191Z,85.72
2018-02-21T06:46:23.201Z,85.74
2018-02-21T06:48:49.260Z,87.88
2018-02-21T06:51:15.277Z,86.48
2018-02-21T06:53:41.321Z,85.43
2018-02-21T06:56:07.483Z,85.45
2018-02-21T06:58:33.490Z,85.27
2018-02-21T07:00:59.609Z,85.22
2018-02-21T07:03:25.623Z,85.13
2018-02-21T07:05:51.624Z,85.14
2018-02-21T07:08:17.685Z,85.15
2018-02-21T07:10:43.701Z,85.23
2018-02-21T07:13:10.125Z,85.11
2018-02-21T07:15:36.189Z,85.21
2018-02-21T07:18:02.317Z,85.13
2018-02-21T07:20:28.334Z,85.06
2018-02-21T07:22:54.372Z,84.84
2018-02-21T07:25:20.437Z,84.79
2018-02-21T07:27:46.541Z,84.52
2018-02-21T07:30:12.568Z,84.56
2018-02-21T07:32:38.557Z,84.47
2018-02-21T07:35:04.569Z,84.71
2018-02-21T07:37:30.718Z,84.42
2018-02-21T07:39:56.781Z,84.21
2018-02-21T07:42:22.825Z,85.16
2018-02-21T07:44:48.880Z,85.30
2018-02-21T07:47:14.944Z,85.06
2018-02-21T07:49:40.978Z,84.77
2018-02-21T07:52:07.013Z,84.27
2018-02-21T07:54:33.041Z,83.73
2018-02-21T07:56:59.041Z,83.74
2018-02-21T07:59:25.142Z,83.30
2018-02-21T08:01:51.175Z,83.32
2018-02-21T08:04:17.219Z,83.17
2018-02-21T08:06:43.260Z,82.92
2018-02-21T08:09:09.233Z,82.36
2018-02-21T08:11:35.238Z,81.45
2018-02-21T08:14:01.246Z,81.12
2018-02-21T08:16:27.305Z,81.16
2018-02-21T08:18:53.382Z,80.01
2018-02-21T08:21:19.448Z,80.51
2018-02-21T08:23:45.487Z,79.68
2018-02-21T08:26:11.517Z,80.02
2018-02-21T08:28:37.517Z,79.41
2018-02-21T08:31:03.616Z,77.55
2018-02-21T08:33:29.624Z,77.03
2018-02-21T08:35:55.673Z,74.30
2018-02-21T08:38:21.682Z,74.10
2018-02-21T08:40:47.676Z,73.56
2018-02-21T08:43:13.726Z,74.45
2018-02-21T08:45:39.730Z,74.03
2018-02-21T08:48:05.834Z,74.60
2018-02-21T08:50:31.852Z,73.43
2018-02-21T08:52:57.802Z,73.81
2018-02-21T08:55:23.840Z,73.48
2018-02-21T08:57:49.912Z,73.45
2018-02-21T09:00:15.965Z,74.61
2018-02-21T09:02:41.981Z,72.82
2018-02-21T09:05:08.022Z,72.64
2018-02-21T09:07:34.035Z,71.81
2018-02-21T09:10:00.012Z,71.60
2018-02-21T09:12:26.048Z,73.05
2018-02-21T09:14:52.049Z,69.33
2018-02-21T09:17:18.118Z,70.04
2018-02-21T09:19:44.154Z,69.30
2018-02-21T09:22:10.198Z,69.74
2018-02-21T09:24:36.181Z,68.70
2018-02-21T09:27:02.293Z,64.91
2018-02-21T09:29:28.366Z,64.02
2018-02-21T09:31:54.367Z,62.98
2018-02-21T09:34:20.433Z,63.09
2018-02-21T09:36:46.468Z,62.17
2018-02-21T09:39:12.505Z,63.51
2018-02-21T09:41:38.485Z,62.87
2018-02-21T09:44:04.580Z,62.60
2018-02-21T09:46:30.606Z,63.35
2018-02-21T09:48:56.676Z,60.24
2018-02-21T09:51:22.678Z,59.81
2018-02-21T09:53:48.688Z,61.05
2018-02-21T09:56:14.725Z,60.02
2018-02-21T09:58:40.734Z,58.50
2018-02-21T10:01:06.704Z,58.55
2018-02-21T10:03:32.741Z,56.83
2018-02-21T10:05:58.747Z,56.75
2018-02-21T10:08:24.758Z,56.75
2018-02-21T10:10:50.888Z,58.11
2018-02-21T10:13:17.000Z,58.92
2018-02-21T10:15:43.028Z,55.28
2018-02-21T10:18:09.072Z,55.82
2018-02-21T10:20:35.128Z,56.17
2018-02-21T10:23:01.032Z,54.29
2018-02-21T10:25:27.062Z,55.82
2018-02-21T10:27:53.061Z,54.52
2018-02-21T10:30:19.041Z,55.60
2018-02-21T10:32:45.092Z,54.09
2018-02-21T10:35:11.145Z,55.16
2018-02-21T10:37:37.118Z,54.50
2018-02-21T10:40:03.485Z,53.28
2018-02-21T10:42:29.536Z,54.22
2018-02-21T10:44:55.612Z,54.21
2018-02-21T10:47:21.642Z,53.31
2018-02-21T10:49:47.718Z,53.70
2018-02-21T10:52:13.719Z,52.80
2018-02-21T10:54:39.741Z,53.62
2018-02-21T10:57:05.765Z,53.37
2018-02-21T10:59:31.835Z,52.40
2018-02-21T11:01:57.869Z,52.14
2018-02-21T11:04:23.874Z,52.48
2018-02-21T11:06:49.890Z,52.80
2018-02-21T11:09:15.899Z,53.60
2018-02-21T11:11:41.899Z,52.45
2018-02-21T11:14:07.920Z,52.66
2018-02-21T11:16:33.973Z,52.71
2018-02-21T11:18:59.953Z,51.59
2018-02-21T11:21:25.950Z,51.29
2018-02-21T11:23:52.013Z,50.33
2018-02-21T11:26:18.026Z,51.38
2018-02-21T11:28:44.023Z,51.80
2018-02-21T11:31:10.040Z,51.22
2018-02-21T11:33:36.037Z,52.15
2018-02-21T11:36:02.092Z,51.19
2018-02-21T11:38:28.094Z,50.67
2018-02-21T11:40:54.141Z,51.44
2018-02-21T11:43:20.134Z,51.85
2018-02-21T11:45:46.180Z,52.54
2018-02-21T11:48:12.201Z,49.77
2018-02-21T11:50:38.181Z,51.00
2018-02-21T11:53:04.198Z,51.73
2018-02-21T11:55:30.197Z,50.25
2018-02-21T11:57:56.234Z,52.22
2018-02-21T12:00:22.200Z,50.87
2018-02-21T12:02:48.257Z,49.26
2018-02-21T12:05:14.330Z,49.51
2018-02-21T12:07:40.358Z,51.74
2018-02-21T12:10:06.409Z,50.45
2018-02-21T12:12:32.440Z,51.61
2018-02-21T12:14:58.476Z,50.71
2018-02-21T12:17:24.517Z,50.37
2018-02-21T12:19:50.548Z,48.61
2018-02-21T12:22:16.580Z,47.47
2018-02-21T12:24:42.684Z,46.78
2018-02-21T12:27:08.739Z,46.32
2018-02-21T12:29:34.839Z,45.34
2018-02-21T12:32:12.666Z,45.37
2018-02-21T12:34:38.677Z,43.55
2018-02-21T12:37:04.705Z,43.68
2018-02-21T12:39:34.580Z,43.77
2018-02-21T12:42:00.728Z,45.03
2018-02-21T12:44:26.682Z,42.33
2018-02-21T12:46:52.682Z,42.47
2018-02-21T12:49:18.744Z,42.12
2018-02-21T12:51:44.797Z,42.14
2018-02-21T12:54:10.862Z,43.03
2018-02-21T12:56:36.921Z,41.34
2018-02-21T12:59:02.990Z,41.53
2018-02-21T13:01:29.014Z,41.23
2018-02-21T13:03:55.037Z,41.04
2018-02-21T13:06:21.082Z,41.26
2018-02-21T13:08:47.076Z,40.44
2018-02-21T13:11:13.096Z,40.94
2018-02-21T13:13:39.114Z,41.23
2018-02-21T13:16:05.168Z,40.54
2018-02-21T13:18:31.185Z,40.41
2018-02-21T13:20:57.190Z,40.27
2018-02-21T13:23:23.230Z,40.83
2018-02-21T13:25:49.223Z,39.72
2018-02-21T13:28:15.265Z,40.70
2018-02-21T13:30:41.339Z,41.07
2018-02-21T13:33:07.354Z,40.57
2018-02-21T13:35:33.329Z,40.77
2018-02-21T13:37:59.618Z,40.25
2018-02-21T13:40:25.641Z,40.12
2018-02-21T13:42:51.628Z,39.48
2018-02-21T13:45:17.629Z,40.79
2018-02-21T13:47:43.729Z,40.29
2018-02-21T13:50:09.713Z,39.42
2018-02-21T13:52:35.765Z,39.88
2018-02-21T13:55:01.765Z,39.91
2018-02-21T13:57:27.722Z,39.34
2018-02-21T13:59:53.750Z,40.04
2018-02-21T14:02:19.721Z,39.82
2018-02-21T14:04:45.956Z,39.27
2018-02-21T14:07:11.968Z,39.20
2018-02-21T14:09:38.025Z,40.53
2018-02-21T14:12:04.041Z,39.72
2018-02-21T14:14:30.102Z,40.32
2018-02-21T14:16:56.154Z,38.48
2018-02-21T14:19:22.146Z,37.92
2018-02-21T14:21:48.165Z,38.33
2018-02-21T14:24:14.308Z,38.25
2018-02-21T14:26:40.372Z,39.50
2018-02-21T14:29:06.517Z,39.03
2018-02-21T14:31:32.580Z,39.54
2018-02-21T14:33:58.618Z,40.22
2018-02-21T14:36:24.604Z,38.37
2018-02-21T14:38:50.625Z,45.69
2018-02-21T14:41:16.593Z,45.59
2018-02-21T14:43:42.643Z,46.40
2018-02-21T14:46:08.665Z,47.87
2018-02-21T14:48:34.673Z,48.40
2018-02-21T14:51:00.721Z,47.11
2018-02-21T14:53:26.799Z,43.34
2018-02-21T14:55:53.118Z,41.64
2018-02-21T14:58:19.151Z,40.94
2018-02-21T15:00:45.206Z,40.29
2018-02-21T15:03:11.221Z,41.09
2018-02-21T15:05:37.270Z,41.95
2018-02-21T15:08:03.269Z,40.58
2018-02-21T15:10:29.320Z,41.53
2018-02-21T15:12:55.373Z,46.66
2018-02-21T15:15:21.516Z,47.89
2018-02-21T15:17:47.566Z,49.08
2018-02-21T15:20:13.572Z,49.67
2018-02-21T15:22:39.936Z,50.37
2018-02-21T15:25:05.905Z,51.64
2018-02-21T15:27:31.983Z,53.22
2018-02-21T15:29:58.037Z,55.75
2018-02-21T15:32:24.445Z,58.56
2018-02-21T15:34:50.954Z,59.22
2018-02-21T15:37:17.070Z,60.40
2018-02-21T15:39:43.118Z,60.81
2018-02-21T15:42:09.128Z,62.07
2018-02-21T15:44:35.117Z,62.87
2018-02-21T15:47:01.214Z,62.82
2018-02-21T15:49:27.216Z,63.70
2018-02-21T15:51:53.222Z,64.46
2018-02-21T15:54:19.285Z,64.84
2018-02-21T15:56:45.319Z,64.67
2018-02-21T15:59:11.422Z,65.35
2018-02-21T16:01:37.444Z,65.56
2018-02-21T16:04:03.504Z,65.64
2018-02-21T16:06:29.553Z,66.08
2018-02-21T16:08:55.701Z,66.51
2018-02-21T16:11:21.714Z,66.39
2018-02-21T16:13:47.796Z,66.31
2018-02-21T16:16:13.863Z,66.57
2018-02-21T16:18:39.958Z,66.95
2018-02-21T16:21:05.943Z,67.98
2018-02-21T16:23:31.962Z,69.18
2018-02-21T16:25:58.017Z,69.99
2018-02-21T16:28:24.035Z,70.44
2018-02-21T16:30:50.105Z,70.35
2018-02-21T16:36:22.500Z,70.56
2018-02-21T16:38:48.525Z,70.65
2018-02-21T16:41:14.576Z,70.37
2018-02-21T16:43:40.670Z,69.85
2018-02-21T16:46:06.788Z,69.78
2018-02-21T16:48:32.870Z,70.06
2018-02-21T16:50:58.993Z,70.15
2018-02-21T16:53:25.646Z,70.07
2018-02-21T16:55:51.721Z,70.11
2018-02-21T16:58:18.028Z,70.19
2018-02-21T17:00:44.158Z,69.71
2018-02-21T17:03:10.186Z,69.87
2018-02-21T17:05:36.262Z,69.75
2018-02-21T17:08:02.332Z,69.21
2018-02-21T17:10:28.386Z,69.36
2018-02-21T17:12:54.511Z,69.76
2018-02-21T17:15:45.403Z,69.65
2018-02-21T17:18:13.147Z,69.32
2018-02-21T17:20:49.920Z,69.47
2018-02-21T17:23:15.994Z,69.47
2018-02-21T17:25:41.994Z,68.98
2018-02-21T17:28:08.086Z,69.13
2018-02-21T17:30:49.043Z,69.13
2018-02-21T17:33:15.783Z,69.02
2018-02-21T17:35:41.999Z,68.97
2018-02-21T17:38:08.158Z,69.06
2018-02-21T17:40:34.245Z,68.49
2018-02-21T17:43:00.264Z,68.53
2018-02-21T17:45:26.282Z,68.58
2018-02-21T17:47:52.338Z,69.08
2018-02-21T17:50:18.407Z,69.00
2018-02-21T17:52:44.470Z,69.20
2018-02-21T17:55:10.561Z,69.45
2018-02-21T17:57:37.216Z,69.15
2018-02-21T18:00:04.372Z,68.76
2018-02-21T18:02:30.475Z,68.95
2018-02-21T18:04:56.626Z,69.54
2018-02-21T18:07:22.678Z,69.45
2018-02-21T18:09:48.788Z,69.42
2018-02-21T18:12:15.041Z,69.06
2018-02-21T18:14:41.168Z,68.35
2018-02-21T18:17:07.261Z,68.30
2018-02-21T18:19:33.298Z,68.96
2018-02-21T18:21:59.389Z,69.17
2018-02-21T18:24:25.567Z,68.41
2018-02-21T18:26:51.699Z,67.24
2018-02-21T18:29:17.680Z,67.54
2018-02-21T18:31:43.720Z,67.64
2018-02-21T18:34:09.823Z,66.61
2018-02-21T18:36:35.889Z,67.01
2018-02-21T18:39:01.990Z,67.02
2018-02-21T18:41:28.321Z,67.11
2018-02-21T18:43:54.344Z,66.24
2018-02-21T18:46:20.433Z,66.70
2018-02-21T18:48:46.507Z,65.99
2018-02-21T18:51:12.523Z,65.33
2018-02-21T18:53:38.552Z,66.17
2018-02-21T18:56:04.634Z,65.63
2018-02-21T18:58:30.622Z,65.39
2018-02-21T19:00:56.729Z,65.05
2018-02-21T19:03:23.005Z,65.09
2018-02-21T19:05:49.046Z,64.34
2018-02-21T19:08:15.047Z,63.51
2018-02-21T19:10:41.126Z,64.13
2018-02-21T19:13:07.261Z,64.20
2018-02-21T19:15:33.418Z,64.54
2018-02-21T19:17:59.433Z,64.09
2018-02-21T19:20:25.476Z,64.21
2018-02-21T19:22:51.526Z,65.61
2018-02-21T19:25:17.750Z,64.48
2018-02-21T19:27:43.790Z,64.46
2018-02-21T19:30:09.948Z,64.89
2018-02-21T19:32:35.963Z,64.85
2018-02-21T19:35:02.265Z,65.09
2018-02-21T19:37:28.340Z,65.07
2018-02-21T19:39:54.442Z,65.55
2018-02-21T19:42:20.596Z,64.82
2018-02-21T19:44:46.646Z,64.97
2018-02-21T19:47:12.700Z,65.41
2018-02-21T19:49:39.002Z,65.42
2018-02-21T19:52:05.020Z,65.58
2018-02-21T19:54:31.095Z,65.77
2018-02-21T19:56:57.177Z,65.78
2018-02-21T19:59:23.318Z,66.26
2018-02-21T20:01:49.380Z,66.08
2018-02-21T20:04:15.447Z,66.28
2018-02-21T20:06:41.676Z,66.03
2018-02-21T20:09:07.715Z,66.42
2018-02-21T20:11:33.889Z,66.39
2018-02-21T20:13:59.986Z,66.69
2018-02-21T20:16:26.064Z,66.58
2018-02-21T20:18:52.232Z,66.49
2018-02-21T20:21:28.217Z,66.48
2018-02-21T20:23:54.267Z,66.56
2018-02-21T20:26:20.340Z,66.91
2018-02-21T20:28:46.477Z,66.60
2018-02-21T20:31:12.537Z,67.11
2018-02-21T20:33:38.618Z,67.19
2018-02-21T20:36:04.666Z,66.69
2018-02-21T20:38:33.743Z,66.99
2018-02-21T20:41:00.317Z,67.07
2018-02-21T20:43:26.341Z,66.59
2018-02-21T20:45:52.432Z,67.12
2018-02-21T20:48:18.486Z,66.79
2018-02-21T20:50:44.547Z,66.59
2018-02-21T20:53:10.674Z,66.16
2018-02-21T20:55:36.739Z,66.21
2018-02-21T20:58:02.855Z,66.32
2018-02-21T21:00:29.429Z,66.15
2018-02-21T21:02:55.494Z,66.34
2018-02-21T21:05:21.542Z,66.90
2018-02-21T21:07:47.643Z,67.01
2018-02-21T21:10:13.652Z,66.45
2018-02-21T21:12:39.725Z,67.09
2018-02-21T21:15:05.793Z,67.33
2018-02-21T21:17:31.842Z,66.93
2018-02-21T21:19:57.824Z,67.23
2018-02-21T21:22:23.926Z,67.22
2018-02-21T21:24:49.971Z,66.75
2018-02-21T21:27:16.018Z,67.30
2018-02-21T21:29:43.034Z,67.17
2018-02-21T21:32:09.074Z,66.66
2018-02-21T21:34:35.107Z,66.97
2018-02-21T21:37:01.202Z,67.02
2018-02-21T21:39:27.245Z,67.15
2018-02-21T21:42:00.389Z,67.07
2018-02-21T21:44:26.423Z,67.20
2018-02-21T21:46:52.473Z,67.48
2018-02-21T21:49:18.542Z,67.02
2018-02-21T21:51:44.608Z,66.77
2018-02-21T21:54:10.674Z,67.24
2018-02-21T21:56:36.706Z,67.16
2018-02-21T21:59:02.809Z,67.28
2018-02-21T22:01:28.866Z,67.08
2018-02-21T22:03:54.899Z,67.48
2018-02-21T22:06:20.969Z,67.59
2018-02-21T22:08:47.009Z,67.54
2018-02-21T22:11:13.047Z,67.83
2018-02-21T22:13:39.114Z,68.24
2018-02-21T22:16:05.181Z,68.73
2018-02-21T22:18:31.169Z,68.43
2018-02-21T22:20:57.185Z,68.74
2018-02-21T22:23:23.209Z,68.36
2018-02-21T22:25:49.248Z,68.48
2018-02-21T22:28:15.273Z,69.07
2018-02-21T22:30:41.362Z,69.02
2018-02-21T22:33:07.388Z,69.45
2018-02-21T22:35:33.365Z,69.40
2018-02-21T22:37:59.465Z,69.37
2018-02-21T22:40:25.483Z,69.66
2018-02-21T22:42:51.540Z,70.30
2018-02-21T22:45:17.606Z,70.22
2018-02-21T22:50:16.541Z,69.93
2018-02-21T22:52:43.262Z,69.52
2018-02-21T22:55:09.288Z,69.87
2018-02-21T22:57:35.408Z,69.74
2018-02-21T23:00:01.731Z,69.68
2018-02-21T23:02:27.786Z,69.68
2018-02-21T23:04:53.807Z,69.72
2018-02-21T23:07:19.840Z,69.64
2018-02-21T23:09:45.870Z,69.68
2018-02-21T23:12:11.916Z,70.14
2018-02-21T23:14:37.928Z,70.31
2018-02-21T23:17:04.017Z,70.25
2018-02-21T23:19:30.036Z,70.04
2018-02-21T23:21:56.025Z,70.48
2018-02-21T23:24:22.085Z,69.99
2018-02-21T23:26:48.078Z,70.29
2018-02-21T23:29:14.130Z,69.90
2018-02-21T23:31:40.138Z,70.03
2018-02-21T23:34:06.148Z,70.77
2018-02-21T23:36:32.149Z,70.46
2018-02-21T23:38:58.146Z,70.89
2018-02-21T23:41:24.201Z,70.41
2018-02-21T23:43:50.216Z,70.57
2018-02-21T23:46:16.230Z,70.56
2018-02-21T23:48:42.322Z,71.07
2018-02-21T23:51:08.406Z,70.63
2018-02-21T23:53:34.430Z,71.00
2018-02-21T23:56:00.505Z,70.99
2018-02-21T23:58:26.557Z,71.07
